Truckee Tahoe Airport
KTRK : rendu visible

Aérodrome :











RETROUVEZ-NOUS SUR...

 
LOGIN :

S'inscrire | Disclaimer

   EN    FR    IT 

 









Légende :    VFR   VFR Marginal   IFR   IFR Intensif   IFR Très Intensif
Visi : 
Plafond : 
>= 8 km
>= 3000ft
5 à 8 km
1000 à 3000 ft
1500m à 5 km
500 à 1000 ft
800 à 1500m
200 à 500 ft
< 800m
< 200 ft
Symboles :   Orages  Brouillard  Fortes neiges  Fortes précipitations  Vent > 20 kt






- Altitude de l'aérodrome : 5900 ft


KTRK - Truckee Tahoe

DERNIER METAR :
  • 242245Z 30004KT 10SM SKC 22/M03 A3016

METARs EXPIRÉS :
  • 242145Z 36006KT 10SM SKC 21/M04 A3017
  • 242045Z 18005KT 10SM SKC 19/M04 A3017

TAF KTRK
Valide du 25 à 00h jusqu'au 26 à 00h UTC


242320Z 2500/2524 32008KT P6SM SCT250
FM250300 VRB03KT P6SM FEW250
FM252100 32008KT P6SM SKC
FIR KZOA / Amérique du Nord



MET'MAP, la Météo Aéronautique d'un coup d'oeil ! - Copyright ORBIFLY Décembre 2007 - Disclaimer

ORBIFLY MET'MAP TEAM :

Programmation & Développement : Alexandra Zaïnal
Sur une idée originale de : Baudouin d'Aumeries
Assistance à la programmation : Marc-Olivier Méhu
Soutien technique & logistique : Manuel Goepfert

Contact : metmap@orbifly.com




SOURCES & CREDITS :

   NOAA       Earth
Advisory